createdAt,value
2022-08-25T00:02:00.514Z,49.75
2022-08-25T00:04:30.531Z,49.54
2022-08-25T00:07:02.777Z,49.34
2022-08-25T00:09:32.823Z,48.52
2022-08-25T00:12:01.314Z,48.81
2022-08-25T00:14:33.496Z,48.71
2022-08-25T00:17:01.893Z,48.01
2022-08-25T00:19:32.816Z,47.32
2022-08-25T00:22:00.785Z,47.14
2022-08-25T00:24:28.994Z,46.86
2022-08-25T00:26:59.089Z,47.36
2022-08-25T00:29:28.836Z,47.64
2022-08-25T00:31:58.621Z,48.06
2022-08-25T00:34:29.778Z,47.64
2022-08-25T00:36:57.414Z,47.64
2022-08-25T00:39:25.480Z,47.43
2022-08-25T00:41:56.542Z,47.29
2022-08-25T00:44:25.821Z,47.09
2022-08-25T00:46:55.460Z,47.09
2022-08-25T00:49:29.209Z,47.06
2022-08-25T00:52:01.320Z,47.15
2022-08-25T00:54:32.380Z,47.60
2022-08-25T00:57:01.259Z,47.55
2022-08-25T00:59:30.089Z,47.29
2022-08-25T01:01:59.236Z,47.18
2022-08-25T01:04:28.676Z,47.02
2022-08-25T01:06:57.796Z,46.95
2022-08-25T01:09:26.124Z,46.62
2022-08-25T01:11:53.811Z,46.96
2022-08-25T01:14:24.342Z,47.49
2022-08-25T01:16:54.577Z,47.85
2022-08-25T01:19:22.235Z,48.19
2022-08-25T01:21:53.198Z,47.95
2022-08-25T01:24:26.322Z,48.32
2022-08-25T01:26:53.995Z,48.61
2022-08-25T01:29:21.640Z,49.04
2022-08-25T01:31:50.210Z,48.96
2022-08-25T01:34:20.378Z,48.95
2022-08-25T01:36:48.562Z,49.42
2022-08-25T01:39:18.291Z,49.09
2022-08-25T01:41:58.736Z,48.87
2022-08-25T01:44:26.779Z,48.81
2022-08-25T01:46:55.223Z,48.31
2022-08-25T01:49:23.289Z,48.60
2022-08-25T01:51:55.943Z,48.60
2022-08-25T01:54:25.027Z,48.48
2022-08-25T01:56:52.892Z,48.26
2022-08-25T01:59:24.283Z,48.71
2022-08-25T02:01:59.903Z,48.55
2022-08-25T02:04:28.365Z,48.58
2022-08-25T02:06:56.287Z,48.82
2022-08-25T02:09:25.621Z,48.89
2022-08-25T02:11:53.657Z,48.82
2022-08-25T02:14:21.301Z,49.25
2022-08-25T02:16:51.369Z,49.15
2022-08-25T02:19:21.153Z,49.63
2022-08-25T02:21:48.753Z,49.85
2022-08-25T02:24:17.434Z,49.55
2022-08-25T02:26:46.844Z,49.63
2022-08-25T02:29:14.774Z,49.78
2022-08-25T02:31:42.697Z,49.69
2022-08-25T02:34:12.186Z,49.48
2022-08-25T02:36:40.225Z,49.96
2022-08-25T02:39:09.364Z,49.64
2022-08-25T02:41:38.038Z,49.02
2022-08-25T02:44:08.596Z,48.85
2022-08-25T02:46:37.788Z,49.04
2022-08-25T02:49:06.033Z,49.10
2022-08-25T02:51:34.570Z,48.97
2022-08-25T02:54:03.708Z,49.12
2022-08-25T02:56:32.189Z,49.48
2022-08-25T02:59:00.866Z,49.38
2022-08-25T03:01:31.621Z,49.47
2022-08-25T03:03:59.525Z,49.88
2022-08-25T03:06:27.467Z,49.90
2022-08-25T03:08:55.678Z,50.24
2022-08-25T03:11:24.973Z,50.01
2022-08-25T03:13:53.483Z,49.80
2022-08-25T03:16:21.389Z,50.07
2022-08-25T03:18:50.438Z,50.34
2022-08-25T03:21:18.851Z,50.31
2022-08-25T03:23:46.581Z,49.84
2022-08-25T03:26:14.541Z,50.38
2022-08-25T03:28:42.518Z,50.73
2022-08-25T03:31:10.701Z,50.67
2022-08-25T03:33:38.316Z,50.64
2022-08-25T03:36:09.568Z,50.72
2022-08-25T03:38:37.500Z,50.42
2022-08-25T03:41:16.249Z,50.57
2022-08-25T03:43:44.275Z,51.08
2022-08-25T03:46:18.131Z,50.84
2022-08-25T03:48:46.396Z,50.66
2022-08-25T03:51:19.791Z,51.14
2022-08-25T03:53:47.942Z,50.50
2022-08-25T03:56:15.774Z,50.69
2022-08-25T03:58:43.525Z,50.60
2022-08-25T04:01:12.150Z,50.28
2022-08-25T04:03:39.954Z,50.50
2022-08-25T04:06:08.263Z,49.88
2022-08-25T04:08:38.294Z,49.94
2022-08-25T04:11:07.313Z,49.80
2022-08-25T04:13:36.527Z,49.61
2022-08-25T04:16:05.177Z,49.60
2022-08-25T04:18:32.987Z,49.85
2022-08-25T04:21:05.756Z,50.08
2022-08-25T04:23:33.664Z,50.47
2022-08-25T04:26:07.901Z,50.26
2022-08-25T04:28:35.620Z,50.60
2022-08-25T04:31:06.610Z,50.63
2022-08-25T04:33:34.646Z,49.51
2022-08-25T04:36:02.409Z,49.73
2022-08-25T04:38:30.171Z,49.53
2022-08-25T04:41:00.898Z,49.81
2022-08-25T04:43:30.691Z,49.31
2022-08-25T04:45:58.859Z,49.78
2022-08-25T04:48:27.158Z,49.57
2022-08-25T04:50:54.806Z,49.61
2022-08-25T04:53:22.487Z,50.34
2022-08-25T04:55:50.290Z,49.51
2022-08-25T04:58:18.278Z,49.42
2022-08-25T05:00:47.302Z,49.84
2022-08-25T05:03:15.141Z,49.50
2022-08-25T05:05:42.946Z,48.97
2022-08-25T05:08:10.626Z,49.13
2022-08-25T05:10:40.480Z,49.32
2022-08-25T05:13:10.030Z,50.14
2022-08-25T05:15:37.962Z,49.57
2022-08-25T05:18:07.498Z,49.88
2022-08-25T05:20:36.528Z,48.44
2022-08-25T05:23:05.501Z,49.95
2022-08-25T05:25:36.325Z,50.74
2022-08-25T05:28:04.179Z,49.13
2022-08-25T05:30:31.935Z,50.15
2022-08-25T05:32:59.753Z,50.01
2022-08-25T05:35:29.063Z,50.90
2022-08-25T05:37:56.864Z,50.50
2022-08-25T05:40:25.740Z,49.48
2022-08-25T05:42:53.363Z,50.05
2022-08-25T05:45:21.544Z,50.38
2022-08-25T05:47:50.003Z,49.97
2022-08-25T05:50:18.221Z,50.55
2022-08-25T05:52:47.515Z,50.44
2022-08-25T05:55:15.612Z,50.68
2022-08-25T05:57:43.371Z,48.90
2022-08-25T06:00:12.062Z,49.30
2022-08-25T06:02:40.802Z,50.45
2022-08-25T06:05:09.205Z,48.10
2022-08-25T06:07:37.247Z,49.21
2022-08-25T06:10:08.455Z,47.77
2022-08-25T06:12:36.406Z,47.35
2022-08-25T06:15:05.373Z,47.22
2022-08-25T06:17:33.610Z,45.50
2022-08-25T06:20:01.644Z,44.82
2022-08-25T06:22:30.682Z,47.11
2022-08-25T06:24:58.681Z,45.69
2022-08-25T06:27:27.784Z,44.59
2022-08-25T06:29:56.073Z,46.84
2022-08-25T06:32:23.873Z,46.32
2022-08-25T06:34:51.818Z,43.88
2022-08-25T06:37:23.278Z,44.38
2022-08-25T06:39:52.878Z,44.45
2022-08-25T06:42:20.670Z,45.49
2022-08-25T06:44:49.746Z,45.92
2022-08-25T06:47:18.901Z,44.30
2022-08-25T06:49:46.999Z,43.77
2022-08-25T06:52:15.515Z,44.15
2022-08-25T06:54:44.296Z,43.77
2022-08-25T06:57:14.816Z,42.50
2022-08-25T06:59:43.283Z,42.92
2022-08-25T07:02:12.665Z,46.17
2022-08-25T07:04:45.469Z,45.39
2022-08-25T07:07:13.540Z,44.86
2022-08-25T07:09:41.456Z,44.43
2022-08-25T07:12:09.248Z,43.12
2022-08-25T07:14:37.427Z,44.26
2022-08-25T07:17:12.526Z,42.86
2022-08-25T07:19:42.054Z,42.77
2022-08-25T07:22:09.733Z,43.43
2022-08-25T07:24:37.577Z,41.49
2022-08-25T07:27:05.634Z,42.68
2022-08-25T07:29:33.856Z,43.65
2022-08-25T07:32:02.541Z,42.51
2022-08-25T07:34:31.412Z,43.59
2022-08-25T07:37:00.809Z,42.86
2022-08-25T07:39:29.115Z,42.66
2022-08-25T07:41:57.467Z,41.48
2022-08-25T07:44:28.163Z,41.28
2022-08-25T07:46:56.378Z,41.17
2022-08-25T07:49:26.831Z,40.55
2022-08-25T07:52:06.641Z,39.94
2022-08-25T07:54:37.771Z,41.06
2022-08-25T07:57:08.040Z,40.29
2022-08-25T07:59:40.231Z,40.92
2022-08-25T08:02:17.855Z,39.42
2022-08-25T08:04:48.256Z,39.89
2022-08-25T08:07:18.953Z,38.56
2022-08-25T08:09:46.953Z,38.94
2022-08-25T08:12:17.085Z,39.21
2022-08-25T08:14:46.642Z,38.74
2022-08-25T08:17:14.498Z,39.57
2022-08-25T08:19:45.374Z,39.77
2022-08-25T08:22:14.699Z,40.46
2022-08-25T08:24:54.491Z,37.95
2022-08-25T08:27:23.424Z,37.66
2022-08-25T08:29:51.175Z,38.03
2022-08-25T08:32:18.892Z,38.20
2022-08-25T08:34:47.148Z,38.24
2022-08-25T08:37:20.269Z,40.32
2022-08-25T08:39:52.094Z,35.61
2022-08-25T08:42:38.158Z,36.30
2022-08-25T08:45:24.448Z,36.69
2022-08-25T08:48:12.343Z,35.07
2022-08-25T08:50:52.535Z,34.38
2022-08-25T08:53:28.136Z,33.11
2022-08-25T08:56:08.986Z,31.07
2022-08-25T08:58:43.912Z,31.28
2022-08-25T09:01:17.358Z,30.57
2022-08-25T09:03:55.201Z,28.50
2022-08-25T09:06:28.782Z,29.09
2022-08-25T09:08:59.541Z,28.12
2022-08-25T09:11:45.391Z,27.22
2022-08-25T09:14:30.405Z,27.40
2022-08-25T09:17:03.594Z,27.60
2022-08-25T09:19:44.062Z,27.08
2022-08-25T09:22:35.164Z,26.95
2022-08-25T09:25:11.756Z,26.82
2022-08-25T09:27:47.293Z,26.91
2022-08-25T09:30:17.386Z,27.29
2022-08-25T09:32:52.611Z,28.33
2022-08-25T09:35:24.494Z,26.76
2022-08-25T09:37:57.200Z,27.86
2022-08-25T09:40:27.176Z,28.28
2022-08-25T09:42:58.846Z,26.58
2022-08-25T09:45:40.114Z,26.07
2022-08-25T09:48:22.927Z,26.81
2022-08-25T09:50:55.420Z,26.77
2022-08-25T09:53:26.927Z,26.18
2022-08-25T09:56:00.591Z,26.87
2022-08-25T09:58:30.162Z,28.13
2022-08-25T10:01:03.687Z,25.86
2022-08-25T10:03:36.493Z,26.96
2022-08-25T10:06:13.235Z,27.43
2022-08-25T10:08:55.855Z,26.80
2022-08-25T10:11:34.326Z,26.42
2022-08-25T10:14:15.367Z,27.56
2022-08-25T10:16:46.916Z,26.56
2022-08-25T10:19:24.347Z,27.42
2022-08-25T10:22:07.640Z,28.36
2022-08-25T10:24:36.144Z,28.16
2022-08-25T10:27:18.614Z,26.61
2022-08-25T10:30:07.331Z,26.85
2022-08-25T10:33:05.648Z,27.62
2022-08-25T10:35:48.012Z,28.15
2022-08-25T10:38:37.081Z,28.01
2022-08-25T10:41:22.225Z,29.18
2022-08-25T10:43:58.641Z,27.71
2022-08-25T10:46:36.599Z,27.49
2022-08-25T10:49:11.223Z,29.09
2022-08-25T10:51:53.531Z,28.55
2022-08-25T10:54:38.851Z,27.17
2022-08-25T10:57:17.436Z,26.93
2022-08-25T10:59:57.264Z,27.73
2022-08-25T11:02:44.751Z,26.62
2022-08-25T11:05:24.545Z,26.52
2022-08-25T11:07:58.791Z,26.64
2022-08-25T11:10:35.455Z,28.46
2022-08-25T11:13:11.164Z,27.11
2022-08-25T11:16:13.303Z,27.59
2022-08-25T11:18:43.296Z,27.30
2022-08-25T11:21:16.137Z,28.46
2022-08-25T11:23:50.870Z,26.83
2022-08-25T11:26:28.886Z,26.87
2022-08-25T11:29:04.719Z,27.80
2022-08-25T11:31:38.930Z,31.25
2022-08-25T11:34:11.847Z,29.98
2022-08-25T11:36:42.176Z,31.59
2022-08-25T11:39:21.259Z,30.60
2022-08-25T11:42:04.630Z,32.47
2022-08-25T11:44:51.880Z,31.22
2022-08-25T11:47:47.857Z,30.97
2022-08-25T11:50:36.427Z,32.23
2022-08-25T11:53:26.540Z,32.43
2022-08-25T11:55:56.635Z,32.87
2022-08-25T11:58:40.774Z,32.69
2022-08-25T12:01:12.208Z,34.26
2022-08-25T12:03:50.823Z,33.70
2022-08-25T12:06:26.745Z,34.31
2022-08-25T12:09:21.749Z,34.22
2022-08-25T12:11:52.851Z,33.13
2022-08-25T12:14:45.666Z,33.98
2022-08-25T12:17:36.711Z,33.14
2022-08-25T12:20:05.408Z,32.33
2022-08-25T12:22:57.295Z,33.59
2022-08-25T12:25:38.671Z,32.70
2022-08-25T12:28:16.975Z,33.35
2022-08-25T12:30:55.165Z,34.02
2022-08-25T12:33:34.828Z,32.87
2022-08-25T12:36:05.110Z,32.41
2022-08-25T12:38:42.468Z,31.89
2022-08-25T12:41:14.650Z,32.58
2022-08-25T12:43:45.245Z,33.31
2022-08-25T12:46:36.985Z,34.25
2022-08-25T12:49:11.958Z,34.21
2022-08-25T12:51:53.094Z,32.79
2022-08-25T12:54:25.109Z,33.83
2022-08-25T12:56:56.350Z,34.48
2022-08-25T12:59:35.219Z,34.98
2022-08-25T13:02:35.816Z,34.13
2022-08-25T13:05:33.491Z,34.89
2022-08-25T13:08:27.052Z,35.05
2022-08-25T13:11:09.310Z,35.68
2022-08-25T13:13:56.616Z,33.63
2022-08-25T13:16:29.418Z,34.97
2022-08-25T13:18:58.806Z,33.81
2022-08-25T13:21:30.570Z,36.26
2022-08-25T13:24:04.711Z,33.99
2022-08-25T13:26:39.215Z,33.58
2022-08-25T13:29:20.409Z,34.11
2022-08-25T13:31:54.137Z,34.21
2022-08-25T13:34:30.416Z,34.01
2022-08-25T13:37:07.471Z,34.01
2022-08-25T13:39:55.835Z,34.34
2022-08-25T13:42:28.769Z,35.05
2022-08-25T13:44:57.080Z,34.24
2022-08-25T13:47:44.961Z,34.40
2022-08-25T13:50:20.998Z,34.77
2022-08-25T13:52:54.651Z,35.58
2022-08-25T13:55:27.762Z,35.46
2022-08-25T13:57:59.250Z,36.47
2022-08-25T14:00:32.423Z,37.41
2022-08-25T14:03:08.734Z,37.35
2022-08-25T14:05:44.166Z,38.00
2022-08-25T14:08:31.995Z,36.26
2022-08-25T14:11:14.633Z,35.20
2022-08-25T14:13:45.342Z,37.40
2022-08-25T14:16:19.160Z,36.68
2022-08-25T14:18:49.210Z,35.13
2022-08-25T14:21:17.643Z,35.09
2022-08-25T14:23:46.999Z,35.12
2022-08-25T14:26:14.692Z,35.35
2022-08-25T14:28:42.390Z,35.21
2022-08-25T14:31:15.134Z,34.84
2022-08-25T14:33:49.903Z,35.67
2022-08-25T14:36:20.797Z,34.98
2022-08-25T14:38:54.844Z,34.45
2022-08-25T14:41:23.492Z,34.69
2022-08-25T14:43:51.854Z,33.33
2022-08-25T14:46:23.387Z,35.65
2022-08-25T14:48:55.350Z,35.86
2022-08-25T14:51:24.189Z,35.63
2022-08-25T14:53:54.260Z,37.73
2022-08-25T14:56:22.182Z,38.46
2022-08-25T14:58:54.207Z,35.84
2022-08-25T15:01:28.831Z,36.50
2022-08-25T15:04:03.649Z,36.86
2022-08-25T15:06:32.120Z,37.32
2022-08-25T15:08:59.892Z,38.10
2022-08-25T15:11:28.600Z,36.58
2022-08-25T15:13:56.872Z,36.36
2022-08-25T15:16:33.973Z,38.67
2022-08-25T15:19:06.593Z,38.31
2022-08-25T15:21:35.808Z,39.27
2022-08-25T15:24:04.285Z,40.82
2022-08-25T15:26:34.356Z,41.57
2022-08-25T15:29:02.060Z,41.83
2022-08-25T15:31:31.570Z,41.67
2022-08-25T15:33:59.562Z,41.15
2022-08-25T15:36:27.883Z,41.06
2022-08-25T15:38:55.873Z,40.81
2022-08-25T15:41:27.811Z,41.61
2022-08-25T15:43:55.636Z,41.29
2022-08-25T15:46:26.873Z,43.10
2022-08-25T15:51:29.211Z,41.37
2022-08-25T15:53:57.611Z,42.08
2022-08-25T15:56:26.750Z,41.60
2022-08-25T15:58:54.998Z,39.96
2022-08-25T16:01:25.638Z,41.35
2022-08-25T16:03:53.587Z,42.30
2022-08-25T16:06:24.340Z,42.58
2022-08-25T16:08:53.021Z,41.95
2022-08-25T16:11:24.750Z,42.03
2022-08-25T16:13:53.474Z,41.23
2022-08-25T16:16:22.945Z,41.21
2022-08-25T16:18:52.370Z,41.10
2022-08-25T16:21:25.637Z,41.38
2022-08-25T16:23:59.899Z,41.43
2022-08-25T16:26:30.498Z,41.48
2022-08-25T16:28:58.233Z,44.08
2022-08-25T16:31:26.319Z,42.74
2022-08-25T16:33:57.660Z,42.55
2022-08-25T16:36:28.986Z,43.21
2022-08-25T16:38:57.450Z,43.45
2022-08-25T16:41:26.963Z,42.90
2022-08-25T16:43:55.552Z,43.58
2022-08-25T16:46:24.172Z,43.52
2022-08-25T16:48:51.830Z,45.08
2022-08-25T16:51:22.721Z,46.31
2022-08-25T16:53:58.795Z,46.55
2022-08-25T16:56:27.555Z,47.28
2022-08-25T16:58:58.114Z,46.42
2022-08-25T17:01:29.659Z,47.16
2022-08-25T17:03:58.583Z,46.84
2022-08-25T17:06:28.337Z,46.71
2022-08-25T17:08:57.873Z,47.32
2022-08-25T17:11:29.624Z,46.93
2022-08-25T17:14:00.320Z,47.22
2022-08-25T17:16:33.262Z,47.23
2022-08-25T17:19:07.290Z,48.07
2022-08-25T17:21:41.357Z,48.35
2022-08-25T17:24:14.956Z,48.39
2022-08-25T17:26:43.831Z,48.51
2022-08-25T17:29:12.121Z,49.16
2022-08-25T17:31:40.393Z,49.69
2022-08-25T17:34:10.663Z,49.89
2022-08-25T17:36:39.954Z,49.40
2022-08-25T17:39:09.626Z,49.22
2022-08-25T17:41:39.539Z,49.65
2022-08-25T17:44:08.473Z,50.08
2022-08-25T17:46:39.155Z,50.11
2022-08-25T17:49:12.162Z,50.27
2022-08-25T17:51:39.829Z,50.91
2022-08-25T17:54:08.038Z,50.86
2022-08-25T17:56:36.252Z,50.70
2022-08-25T17:59:05.363Z,51.17
2022-08-25T18:01:35.278Z,50.57
2022-08-25T18:04:17.136Z,52.58
2022-08-25T18:06:46.523Z,55.33
2022-08-25T18:09:14.590Z,55.04
2022-08-25T18:11:42.653Z,57.68
2022-08-25T18:14:11.798Z,58.54
2022-08-25T18:16:40.598Z,58.19
2022-08-25T18:19:11.173Z,55.66
2022-08-25T18:21:39.049Z,55.96
2022-08-25T18:24:07.747Z,56.38
2022-08-25T18:26:35.955Z,56.74
2022-08-25T18:29:04.693Z,59.50
2022-08-25T18:31:33.986Z,58.38
2022-08-25T18:34:04.345Z,58.88
2022-08-25T18:36:32.884Z,60.72
2022-08-25T18:39:06.766Z,61.09
2022-08-25T18:41:37.065Z,62.36
2022-08-25T18:44:06.060Z,62.61
2022-08-25T18:46:36.531Z,64.86
2022-08-25T18:49:05.021Z,64.13
2022-08-25T18:51:33.355Z,64.86
2022-08-25T18:54:01.557Z,64.57
2022-08-25T18:56:29.858Z,62.85
2022-08-25T18:58:57.913Z,60.81
2022-08-25T19:01:25.979Z,57.86
2022-08-25T19:03:55.108Z,55.75
2022-08-25T19:06:22.940Z,56.28
2022-08-25T19:08:51.203Z,58.71
2022-08-25T19:11:22.305Z,61.34
2022-08-25T19:13:50.592Z,61.85
2022-08-25T19:16:29.676Z,60.92
2022-08-25T19:18:58.863Z,57.09
2022-08-25T19:21:26.559Z,58.18
2022-08-25T19:23:54.393Z,58.95
2022-08-25T19:26:22.047Z,57.99
2022-08-25T19:28:49.898Z,56.63
2022-08-25T19:31:19.268Z,54.59
2022-08-25T19:33:47.204Z,53.36
2022-08-25T19:36:17.815Z,52.44
2022-08-25T19:38:49.031Z,51.55
2022-08-25T19:41:20.963Z,49.89
2022-08-25T19:43:56.336Z,49.40
2022-08-25T19:46:32.274Z,49.09
2022-08-25T19:49:07.075Z,48.69
2022-08-25T19:51:38.623Z,49.35
2022-08-25T19:54:09.241Z,49.18
2022-08-25T19:56:43.810Z,49.02
2022-08-25T19:59:24.283Z,49.44
2022-08-25T20:01:52.029Z,49.18
2022-08-25T20:04:19.958Z,49.41
2022-08-25T20:06:49.599Z,49.01
2022-08-25T20:09:35.807Z,47.95
2022-08-25T20:12:06.220Z,48.47
2022-08-25T20:14:35.020Z,48.37
2022-08-25T20:17:04.313Z,47.45
2022-08-25T20:19:42.663Z,47.76
2022-08-25T20:22:18.190Z,46.96
2022-08-25T20:24:47.082Z,46.59
2022-08-25T20:27:14.841Z,46.00
2022-08-25T20:29:44.646Z,46.34
2022-08-25T20:32:12.843Z,45.57
2022-08-25T20:34:41.127Z,45.95
2022-08-25T20:37:09.559Z,44.88
2022-08-25T20:39:39.772Z,45.60
2022-08-25T20:42:08.255Z,44.54
2022-08-25T20:44:41.819Z,45.13
2022-08-25T20:47:11.003Z,44.64
2022-08-25T20:49:39.295Z,45.39
2022-08-25T20:52:08.000Z,45.02
2022-08-25T20:54:36.295Z,45.26
2022-08-25T20:57:05.529Z,45.00
2022-08-25T20:59:36.000Z,45.09
2022-08-25T21:02:03.976Z,45.17
2022-08-25T21:04:31.718Z,45.47
2022-08-25T21:07:00.057Z,45.51
2022-08-25T21:09:28.712Z,45.79
2022-08-25T21:11:58.320Z,46.74
2022-08-25T21:14:28.320Z,45.89
2022-08-25T21:16:57.077Z,45.69
2022-08-25T21:19:33.984Z,45.18
2022-08-25T21:22:02.563Z,45.30
2022-08-25T21:24:30.545Z,45.46
2022-08-25T21:26:58.695Z,45.22
2022-08-25T21:29:29.308Z,45.77
2022-08-25T21:31:57.099Z,44.97
2022-08-25T21:34:25.668Z,45.13
2022-08-25T21:36:57.292Z,44.59
2022-08-25T21:39:25.622Z,45.14
2022-08-25T21:41:54.451Z,44.82
2022-08-25T21:44:22.619Z,45.05
2022-08-25T21:46:54.225Z,44.85
2022-08-25T21:49:23.519Z,45.16
2022-08-25T21:52:00.497Z,44.62
2022-08-25T21:54:29.741Z,45.33
2022-08-25T21:56:59.341Z,45.37
2022-08-25T21:59:28.428Z,45.51
2022-08-25T22:02:00.408Z,45.48
2022-08-25T22:04:28.378Z,46.38
2022-08-25T22:06:57.193Z,46.21
2022-08-25T22:09:28.339Z,46.23
2022-08-25T22:11:56.298Z,46.15
2022-08-25T22:14:26.233Z,46.81
2022-08-25T22:16:54.499Z,47.20
2022-08-25T22:19:24.701Z,46.51
2022-08-25T22:21:54.155Z,46.81
2022-08-25T22:24:22.129Z,47.46
2022-08-25T22:26:50.169Z,47.57
2022-08-25T22:29:24.817Z,47.16
2022-08-25T22:31:53.440Z,47.44
2022-08-25T22:34:30.737Z,47.94
2022-08-25T22:37:02.115Z,47.80
2022-08-25T22:39:34.288Z,48.06
2022-08-25T22:42:02.199Z,48.06
2022-08-25T22:44:30.307Z,48.65
2022-08-25T22:46:57.967Z,48.67
2022-08-25T22:49:28.548Z,48.79
2022-08-25T22:51:56.367Z,49.13
2022-08-25T22:54:27.145Z,49.19
2022-08-25T22:56:54.789Z,49.69
2022-08-25T22:59:22.689Z,49.87
2022-08-25T23:01:50.810Z,50.20
2022-08-25T23:04:19.159Z,50.53
2022-08-25T23:06:48.249Z,50.80
2022-08-25T23:09:16.486Z,51.27
2022-08-25T23:11:47.385Z,51.37
2022-08-25T23:14:19.673Z,51.80
2022-08-25T23:16:47.538Z,51.32
2022-08-25T23:19:16.993Z,51.31
2022-08-25T23:21:45.207Z,51.68
2022-08-25T23:24:29.126Z,51.31
2022-08-25T23:27:01.128Z,51.67
2022-08-25T23:29:30.294Z,51.54
2022-08-25T23:31:58.708Z,51.30
2022-08-25T23:34:27.370Z,51.58
2022-08-25T23:36:56.380Z,51.54
2022-08-25T23:39:24.693Z,51.63
2022-08-25T23:41:52.897Z,51.90
2022-08-25T23:44:22.912Z,51.78
2022-08-25T23:46:53.193Z,52.31
2022-08-25T23:49:22.972Z,52.28
2022-08-25T23:51:52.895Z,52.60
2022-08-25T23:54:21.066Z,52.55
2022-08-25T23:56:51.780Z,52.84
2022-08-25T23:59:24.170Z,53.09
